createdAt,value
2022-09-23T00:00:15.716Z,13.30
2022-09-23T00:02:40.765Z,13.30
2022-09-23T00:05:04.508Z,13.30
2022-09-23T00:07:27.901Z,13.40
2022-09-23T00:09:51.594Z,13.30
2022-09-23T00:12:15.489Z,13.30
2022-09-23T00:14:40.090Z,13.30
2022-09-23T00:17:04.153Z,13.40
2022-09-23T00:19:29.479Z,13.40
2022-09-23T00:21:53.211Z,13.40
2022-09-23T00:24:16.920Z,13.40
2022-09-23T00:26:40.881Z,13.40
2022-09-23T00:29:05.093Z,13.30
2022-09-23T00:31:29.505Z,13.40
2022-09-23T00:33:57.089Z,13.40
2022-09-23T00:36:22.148Z,13.40
2022-09-23T00:38:46.908Z,13.50
2022-09-23T00:41:10.507Z,13.40
2022-09-23T00:43:45.962Z,13.40
2022-09-23T00:46:11.920Z,13.30
2022-09-23T00:48:37.227Z,13.40
2022-09-23T00:51:00.789Z,13.40
2022-09-23T00:53:27.728Z,13.50
2022-09-23T00:55:55.984Z,13.40
2022-09-23T00:58:25.255Z,13.40
2022-09-23T01:00:49.454Z,13.30
2022-09-23T01:03:13.126Z,13.30
2022-09-23T01:05:39.936Z,13.30
2022-09-23T01:08:05.936Z,13.30
2022-09-23T01:10:43.313Z,13.20
2022-09-23T01:13:17.096Z,13.20
2022-09-23T01:15:50.345Z,13.20
2022-09-23T01:18:31.912Z,13.30
2022-09-23T01:21:15.049Z,13.30
2022-09-23T01:24:40.977Z,13.20
2022-09-23T01:27:17.738Z,13.10
2022-09-23T01:30:36.219Z,13.10
2022-09-23T01:33:09.135Z,13.10
2022-09-23T01:35:49.131Z,13.00
2022-09-23T01:38:27.842Z,13.00
2022-09-23T01:41:00.344Z,13.00
2022-09-23T01:43:32.463Z,13.00
2022-09-23T01:46:00.674Z,13.00
2022-09-23T01:48:33.348Z,13.00
2022-09-23T01:51:03.406Z,13.00
2022-09-23T01:53:38.898Z,13.00
2022-09-23T01:56:08.656Z,13.00
2022-09-23T01:58:39.693Z,13.00
2022-09-23T02:01:08.129Z,13.00
2022-09-23T02:03:36.486Z,12.90
2022-09-23T02:06:06.533Z,12.90
2022-09-23T02:08:37.161Z,12.90
2022-09-23T02:11:06.778Z,13.00
2022-09-23T02:13:39.491Z,13.00
2022-09-23T02:16:10.290Z,12.90
2022-09-23T02:18:42.151Z,13.00
2022-09-23T02:21:09.723Z,13.00
2022-09-23T02:23:39.391Z,12.90
2022-09-23T02:26:09.735Z,13.00
2022-09-23T02:28:44.552Z,12.90
2022-09-23T02:31:16.229Z,13.00
2022-09-23T02:33:47.506Z,12.90
2022-09-23T02:36:18.547Z,13.00
2022-09-23T02:38:47.689Z,12.90
2022-09-23T02:41:17.495Z,12.80
2022-09-23T02:43:50.384Z,13.00
2022-09-23T02:46:16.070Z,13.00
2022-09-23T02:48:44.475Z,12.90
2022-09-23T02:51:08.304Z,13.00
2022-09-23T02:53:34.579Z,12.90
2022-09-23T02:55:58.056Z,12.80
2022-09-23T02:58:21.645Z,12.80
2022-09-23T03:00:57.403Z,12.80
2022-09-23T03:03:40.213Z,12.80
2022-09-23T03:06:16.384Z,12.80
2022-09-23T03:08:50.503Z,12.70
2022-09-23T03:11:15.249Z,12.80
2022-09-23T03:13:55.381Z,12.70
2022-09-23T03:16:31.434Z,12.60
2022-09-23T03:19:03.806Z,12.60
2022-09-23T03:21:35.569Z,12.60
2022-09-23T03:24:04.296Z,12.50
2022-09-23T03:26:33.178Z,12.70
2022-09-23T03:28:56.954Z,12.60
2022-09-23T03:31:20.850Z,12.40
2022-09-23T03:33:49.740Z,12.60
2022-09-23T03:36:37.841Z,12.70
2022-09-23T03:39:07.525Z,12.70
2022-09-23T03:41:36.397Z,12.70
2022-09-23T03:44:01.389Z,12.70
2022-09-23T03:46:27.562Z,12.60
2022-09-23T03:48:51.118Z,12.60
2022-09-23T03:51:24.797Z,12.40
2022-09-23T03:53:48.424Z,12.40
2022-09-23T03:56:12.371Z,12.50
2022-09-23T03:58:35.945Z,12.40
2022-09-23T04:00:59.620Z,12.40
2022-09-23T04:03:23.215Z,12.40
2022-09-23T04:05:48.470Z,12.40
2022-09-23T04:08:13.341Z,12.50
2022-09-23T04:10:36.819Z,12.40
2022-09-23T04:13:00.431Z,12.40
2022-09-23T04:15:24.083Z,12.40
2022-09-23T04:17:47.564Z,12.50
2022-09-23T04:20:11.453Z,12.40
2022-09-23T04:22:35.147Z,12.40
2022-09-23T04:24:59.988Z,12.30
2022-09-23T04:27:23.570Z,12.30
2022-09-23T04:29:47.074Z,12.20
2022-09-23T04:32:10.529Z,12.10
2022-09-23T04:34:34.088Z,12.30
2022-09-23T04:36:57.626Z,12.20
2022-09-23T04:39:21.191Z,11.90
2022-09-23T04:41:47.242Z,12.20
2022-09-23T04:44:12.026Z,12.20
2022-09-23T04:46:35.795Z,12.20
2022-09-23T04:48:59.365Z,12.10
2022-09-23T04:51:26.415Z,12.40
2022-09-23T04:53:52.392Z,12.30
2022-09-23T04:56:18.746Z,12.20
2022-09-23T04:58:44.418Z,12.30
2022-09-23T05:01:13.183Z,12.30
2022-09-23T05:03:36.702Z,12.30
2022-09-23T05:06:01.678Z,12.30
2022-09-23T05:08:25.246Z,12.20
2022-09-23T05:10:49.461Z,12.30
2022-09-23T05:13:13.087Z,12.20
2022-09-23T05:15:37.939Z,12.30
2022-09-23T05:18:02.568Z,12.20
2022-09-23T05:20:26.159Z,12.30
2022-09-23T05:22:49.648Z,12.30
2022-09-23T05:25:13.106Z,12.10
2022-09-23T05:27:36.703Z,12.10
2022-09-23T05:30:01.087Z,12.10
2022-09-23T05:32:26.359Z,12.10
2022-09-23T05:34:49.928Z,12.20
2022-09-23T05:37:13.530Z,12.10
2022-09-23T05:39:37.319Z,12.20
2022-09-23T05:42:01.122Z,12.10
2022-09-23T05:44:24.580Z,12.10
2022-09-23T05:46:48.231Z,12.00
2022-09-23T05:49:13.257Z,12.10
2022-09-23T05:51:37.105Z,12.00
2022-09-23T05:54:02.978Z,12.20
2022-09-23T05:56:29.436Z,12.20
2022-09-23T05:58:55.396Z,12.10
2022-09-23T06:01:22.049Z,12.10
2022-09-23T06:03:48.306Z,12.20
2022-09-23T06:06:16.017Z,12.30
2022-09-23T06:08:39.633Z,12.30
2022-09-23T06:11:07.717Z,12.30
2022-09-23T06:13:31.270Z,12.30
2022-09-23T06:15:59.409Z,12.30
2022-09-23T06:18:23.027Z,12.50
2022-09-23T06:20:47.099Z,12.30
2022-09-23T06:23:12.910Z,12.30
2022-09-23T06:25:38.405Z,12.50
2022-09-23T06:28:02.348Z,12.50
2022-09-23T06:30:27.554Z,12.50
2022-09-23T06:32:52.101Z,12.60
2022-09-23T06:35:24.948Z,12.60
2022-09-23T06:37:49.653Z,12.70
2022-09-23T06:40:15.535Z,12.80
2022-09-23T06:42:39.001Z,12.90
2022-09-23T06:45:02.901Z,12.90
2022-09-23T06:47:26.515Z,12.90
2022-09-23T06:49:51.568Z,12.90
2022-09-23T06:52:15.038Z,13.00
2022-09-23T06:54:38.554Z,13.10
2022-09-23T06:57:03.407Z,13.10
2022-09-23T06:59:26.939Z,13.20
2022-09-23T07:01:50.805Z,13.20
2022-09-23T07:04:14.556Z,13.20
2022-09-23T07:06:38.208Z,13.40
2022-09-23T07:09:02.052Z,13.40
2022-09-23T07:11:27.038Z,13.30
2022-09-23T07:13:52.510Z,13.40
2022-09-23T07:16:16.314Z,13.40
2022-09-23T07:18:41.062Z,13.50
2022-09-23T07:21:10.205Z,13.70
2022-09-23T07:23:33.966Z,13.70
2022-09-23T07:26:00.260Z,13.70
2022-09-23T07:28:24.097Z,13.80
2022-09-23T07:30:58.876Z,13.80
2022-09-23T07:33:31.508Z,13.80
2022-09-23T07:35:55.909Z,13.90
2022-09-23T07:38:19.469Z,13.90
2022-09-23T07:40:43.023Z,13.90
2022-09-23T07:43:07.715Z,13.90
2022-09-23T07:45:34.183Z,14.00
2022-09-23T07:47:59.155Z,13.90
2022-09-23T07:50:22.954Z,14.00
2022-09-23T07:52:46.653Z,14.20
2022-09-23T07:55:10.543Z,14.20
2022-09-23T07:57:35.036Z,14.20
2022-09-23T07:59:58.564Z,14.30
2022-09-23T08:02:22.677Z,14.20
2022-09-23T08:04:47.652Z,14.30
2022-09-23T08:07:14.493Z,14.30
2022-09-23T08:09:41.533Z,14.40
2022-09-23T08:12:05.593Z,14.50
2022-09-23T08:14:29.386Z,14.50
2022-09-23T08:16:54.159Z,14.70
2022-09-23T08:19:18.272Z,14.70
2022-09-23T08:21:43.515Z,14.80
2022-09-23T08:24:07.259Z,14.80
2022-09-23T08:26:30.950Z,14.80
2022-09-23T08:28:56.547Z,14.90
2022-09-23T08:31:20.602Z,14.90
2022-09-23T08:33:44.506Z,14.90
2022-09-23T08:36:09.164Z,14.90
2022-09-23T08:38:34.393Z,14.70
2022-09-23T08:41:09.358Z,14.80
2022-09-23T08:43:36.154Z,14.90
2022-09-23T08:46:03.765Z,14.90
2022-09-23T08:48:32.262Z,14.80
2022-09-23T08:51:02.596Z,14.70
2022-09-23T08:53:28.943Z,14.80
2022-09-23T08:55:57.497Z,14.70
2022-09-23T08:58:43.232Z,14.90
2022-09-23T09:01:17.672Z,15.10
2022-09-23T09:03:47.881Z,15.20
2022-09-23T09:06:19.949Z,15.20
2022-09-23T09:08:46.345Z,15.30
2022-09-23T09:11:15.203Z,15.40
2022-09-23T09:13:47.464Z,15.70
2022-09-23T09:16:59.068Z,15.70
2022-09-23T09:19:47.314Z,15.70
2022-09-23T09:22:23.812Z,15.80
2022-09-23T09:24:50.927Z,16.00
2022-09-23T09:27:16.260Z,16.00
2022-09-23T09:29:43.968Z,16.00
2022-09-23T09:32:23.687Z,16.00
2022-09-23T09:34:54.882Z,16.10
2022-09-23T09:37:25.966Z,16.20
2022-09-23T09:39:49.547Z,16.40
2022-09-23T09:42:24.526Z,16.40
2022-09-23T09:44:54.214Z,16.60
2022-09-23T09:47:29.499Z,16.50
2022-09-23T09:50:01.969Z,16.60
2022-09-23T09:52:29.915Z,16.70
2022-09-23T09:54:56.209Z,16.90
2022-09-23T09:57:36.360Z,16.80
2022-09-23T10:00:19.024Z,17.00
2022-09-23T10:02:42.776Z,17.00
2022-09-23T10:05:08.968Z,17.00
2022-09-23T10:07:35.381Z,17.10
2022-09-23T10:10:15.996Z,17.00
2022-09-23T10:12:49.109Z,17.00
2022-09-23T10:15:31.373Z,17.00
2022-09-23T10:17:55.020Z,17.00
2022-09-23T10:20:18.931Z,17.10
2022-09-23T10:22:43.891Z,17.10
2022-09-23T10:25:11.481Z,17.10
2022-09-23T10:27:37.138Z,16.80
2022-09-23T10:30:05.029Z,16.90
2022-09-23T10:32:32.665Z,17.20
2022-09-23T10:34:59.802Z,17.20
2022-09-23T10:37:32.600Z,17.30
2022-09-23T10:40:13.735Z,17.40
2022-09-23T10:43:12.524Z,17.40
2022-09-23T10:45:59.193Z,17.60
2022-09-23T10:48:31.186Z,17.50
2022-09-23T10:50:56.116Z,17.60
2022-09-23T10:53:28.314Z,17.40
2022-09-23T10:56:13.085Z,17.50
2022-09-23T10:59:11.514Z,17.50
2022-09-23T11:01:45.671Z,17.70
2022-09-23T11:04:37.341Z,17.80
2022-09-23T11:07:14.325Z,17.90
2022-09-23T11:09:58.319Z,18.00
2022-09-23T11:12:33.569Z,18.00
2022-09-23T11:15:30.027Z,18.10
2022-09-23T11:18:35.272Z,18.10
2022-09-23T11:21:10.429Z,18.10
2022-09-23T11:23:57.952Z,18.10
2022-09-23T11:26:36.673Z,18.20
2022-09-23T11:29:35.451Z,18.40
2022-09-23T11:32:24.987Z,18.40
2022-09-23T11:35:04.252Z,18.60
2022-09-23T11:37:31.903Z,18.70
2022-09-23T11:40:03.592Z,18.70
2022-09-23T11:42:32.417Z,18.70
2022-09-23T11:45:03.403Z,18.60
2022-09-23T11:47:35.248Z,18.60
2022-09-23T11:50:07.561Z,18.70
2022-09-23T11:52:37.086Z,18.70
2022-09-23T11:55:18.110Z,18.80
2022-09-23T11:57:51.407Z,18.80
2022-09-23T12:00:20.197Z,18.90
2022-09-23T12:03:05.985Z,18.90
2022-09-23T12:05:36.944Z,19.10
2022-09-23T12:08:07.720Z,19.00
2022-09-23T12:10:45.889Z,19.00
2022-09-23T12:13:18.113Z,18.90
2022-09-23T12:15:59.379Z,19.00
2022-09-23T12:18:43.142Z,19.10
2022-09-23T12:21:50.327Z,19.20
2022-09-23T12:24:48.399Z,19.20
2022-09-23T12:27:24.200Z,19.00
2022-09-23T12:29:50.714Z,18.90
2022-09-23T12:32:19.588Z,19.00
2022-09-23T12:34:48.832Z,19.00
2022-09-23T12:37:13.807Z,19.10
2022-09-23T12:39:39.674Z,19.00
2022-09-23T12:42:06.578Z,19.00
2022-09-23T12:44:40.467Z,19.00
2022-09-23T12:47:38.913Z,19.00
2022-09-23T12:50:02.502Z,19.00
2022-09-23T12:52:30.908Z,19.00
2022-09-23T12:54:58.648Z,19.00
2022-09-23T12:57:43.720Z,19.00
2022-09-23T13:00:24.733Z,19.00
2022-09-23T13:03:15.753Z,19.20
2022-09-23T13:06:00.908Z,19.20
2022-09-23T13:08:27.050Z,19.10
2022-09-23T13:10:56.279Z,19.00
2022-09-23T13:13:25.441Z,19.20
2022-09-23T13:15:49.887Z,19.10
2022-09-23T13:18:59.581Z,19.20
2022-09-23T13:22:08.821Z,19.30
2022-09-23T13:24:44.637Z,19.10
2022-09-23T13:27:19.712Z,19.10
2022-09-23T13:29:50.042Z,19.30
2022-09-23T13:32:18.367Z,19.20
2022-09-23T13:34:46.672Z,19.30
2022-09-23T13:37:22.628Z,19.30
2022-09-23T13:39:48.177Z,19.30
2022-09-23T13:42:22.198Z,19.30
2022-09-23T13:44:46.295Z,19.30
2022-09-23T13:47:14.666Z,19.10
2022-09-23T13:49:38.606Z,19.20
2022-09-23T13:52:03.250Z,19.30
2022-09-23T13:54:32.168Z,19.40
2022-09-23T13:56:57.462Z,19.30
2022-09-23T13:59:27.119Z,19.40
2022-09-23T14:01:50.822Z,19.40
2022-09-23T14:04:25.380Z,19.30
2022-09-23T14:06:49.177Z,19.30
2022-09-23T14:09:14.750Z,19.40
2022-09-23T14:11:38.919Z,19.30
2022-09-23T14:14:07.228Z,19.30
2022-09-23T14:16:31.536Z,19.30
2022-09-23T14:18:59.695Z,19.30
2022-09-23T14:21:34.903Z,19.40
2022-09-23T14:24:09.469Z,19.30
2022-09-23T14:26:33.167Z,19.40
2022-09-23T14:28:56.746Z,19.50
2022-09-23T14:31:21.771Z,19.40
2022-09-23T14:33:46.898Z,19.30
2022-09-23T14:36:37.412Z,19.40
2022-09-23T14:39:06.475Z,19.20
2022-09-23T14:41:35.538Z,19.20
2022-09-23T14:44:01.235Z,19.20
2022-09-23T14:46:28.759Z,19.30
2022-09-23T14:49:00.444Z,19.10
2022-09-23T14:51:33.233Z,19.20
2022-09-23T14:53:56.846Z,19.30
2022-09-23T14:56:22.751Z,19.30
2022-09-23T14:58:52.897Z,19.20
2022-09-23T15:01:40.263Z,19.20
2022-09-23T15:04:14.583Z,19.30
2022-09-23T15:06:39.327Z,19.30
2022-09-23T15:09:03.005Z,19.20
2022-09-23T15:11:26.645Z,19.20
2022-09-23T15:13:52.964Z,19.10
2022-09-23T15:16:17.944Z,19.20
2022-09-23T15:18:46.087Z,19.10
2022-09-23T15:21:12.956Z,19.20
2022-09-23T15:23:45.867Z,19.20
2022-09-23T15:26:13.441Z,19.10
2022-09-23T15:28:40.130Z,19.10
2022-09-23T15:31:05.868Z,18.90
2022-09-23T15:33:29.933Z,19.00
2022-09-23T15:35:55.551Z,19.10
2022-09-23T15:38:19.090Z,19.00
2022-09-23T15:40:43.426Z,19.10
2022-09-23T15:43:20.491Z,18.90
2022-09-23T15:45:47.998Z,18.90
2022-09-23T15:48:15.336Z,19.00
2022-09-23T15:50:39.471Z,19.00
2022-09-23T15:53:06.051Z,18.90
2022-09-23T15:55:29.583Z,18.90
2022-09-23T15:57:53.188Z,18.90
2022-09-23T16:00:17.416Z,18.80
2022-09-23T16:02:41.506Z,18.90
2022-09-23T16:05:07.687Z,18.80
2022-09-23T16:07:31.198Z,18.70
2022-09-23T16:09:58.627Z,18.70
2022-09-23T16:12:23.318Z,18.80
2022-09-23T16:14:46.813Z,18.90
2022-09-23T16:17:14.969Z,18.80
2022-09-23T16:19:38.468Z,18.70
2022-09-23T16:22:02.169Z,18.70
2022-09-23T16:24:28.142Z,18.80
2022-09-23T16:26:59.820Z,18.60
2022-09-23T16:29:26.421Z,18.70
2022-09-23T16:31:50.011Z,18.70
2022-09-23T16:34:13.581Z,18.70
2022-09-23T16:36:41.235Z,18.70
2022-09-23T16:39:08.040Z,18.70
2022-09-23T16:41:32.617Z,18.70
2022-09-23T16:43:57.646Z,18.70
2022-09-23T16:46:22.526Z,18.60
2022-09-23T16:48:52.103Z,18.70
2022-09-23T16:51:20.503Z,18.60
2022-09-23T16:53:44.324Z,18.50
2022-09-23T16:56:09.619Z,18.60
2022-09-23T16:58:33.141Z,18.50
2022-09-23T17:01:17.893Z,18.50
2022-09-23T17:03:41.430Z,18.50
2022-09-23T17:06:08.064Z,18.50
2022-09-23T17:08:32.121Z,18.50
2022-09-23T17:11:00.297Z,18.50
2022-09-23T17:13:25.413Z,18.50
2022-09-23T17:15:49.211Z,18.50
2022-09-23T17:18:17.685Z,18.40
2022-09-23T17:20:43.043Z,18.50
2022-09-23T17:23:07.964Z,18.50
2022-09-23T17:25:31.608Z,18.50
2022-09-23T17:27:55.723Z,18.40
2022-09-23T17:30:19.736Z,18.40
2022-09-23T17:32:43.836Z,18.40
2022-09-23T17:35:10.597Z,18.30
2022-09-23T17:37:34.187Z,18.30
2022-09-23T17:39:57.794Z,18.30
2022-09-23T17:42:21.772Z,18.20
2022-09-23T17:44:45.891Z,18.10
2022-09-23T17:47:09.770Z,18.10
2022-09-23T17:49:35.512Z,18.10
2022-09-23T17:52:03.301Z,18.10
2022-09-23T17:54:27.101Z,18.00
2022-09-23T17:56:50.725Z,18.00
2022-09-23T17:59:14.490Z,17.90
2022-09-23T18:01:38.214Z,17.80
2022-09-23T18:04:05.639Z,17.70
2022-09-23T18:06:32.157Z,17.60
2022-09-23T18:08:57.061Z,17.60
2022-09-23T18:11:24.042Z,17.60
2022-09-23T18:13:53.256Z,17.50
2022-09-23T18:16:16.978Z,17.60
2022-09-23T18:18:40.629Z,17.50
2022-09-23T18:21:04.582Z,17.40
2022-09-23T18:23:28.212Z,17.40
2022-09-23T18:25:53.135Z,17.30
2022-09-23T18:28:16.637Z,17.40
2022-09-23T18:30:40.142Z,17.50
2022-09-23T18:33:03.675Z,17.40
2022-09-23T18:35:28.341Z,17.40
2022-09-23T18:37:51.916Z,17.40
2022-09-23T18:40:15.511Z,17.40
2022-09-23T18:42:41.452Z,17.40
2022-09-23T18:45:05.643Z,17.30
2022-09-23T18:47:47.733Z,17.20
2022-09-23T18:50:31.220Z,17.20
2022-09-23T18:52:54.688Z,17.40
2022-09-23T18:55:18.726Z,17.40
2022-09-23T18:57:43.469Z,17.20
2022-09-23T19:00:09.327Z,17.30
2022-09-23T19:02:33.190Z,17.20
2022-09-23T19:04:57.084Z,17.20
2022-09-23T19:07:20.600Z,17.20
2022-09-23T19:09:44.072Z,17.10
2022-09-23T19:12:07.582Z,17.20
2022-09-23T19:14:35.715Z,17.20
2022-09-23T19:16:59.426Z,17.20
2022-09-23T19:19:23.476Z,17.20
2022-09-23T19:21:47.616Z,17.30
2022-09-23T19:24:15.975Z,17.40
2022-09-23T19:26:41.549Z,17.30
2022-09-23T19:29:08.237Z,17.40
2022-09-23T19:31:35.352Z,17.30
2022-09-23T19:34:00.694Z,17.30
2022-09-23T19:36:29.729Z,17.30
2022-09-23T19:38:55.751Z,17.30
2022-09-23T19:41:20.094Z,17.30
2022-09-23T19:43:47.411Z,17.30
2022-09-23T19:46:10.924Z,17.30
2022-09-23T19:48:35.785Z,17.40
2022-09-23T19:50:59.318Z,17.20
2022-09-23T19:53:27.869Z,17.20
2022-09-23T19:55:53.542Z,17.20
2022-09-23T19:58:17.250Z,17.10
2022-09-23T20:00:41.467Z,17.30
2022-09-23T20:03:05.147Z,17.20
2022-09-23T20:05:30.072Z,17.30
2022-09-23T20:07:53.527Z,17.20
2022-09-23T20:10:17.349Z,17.10
2022-09-23T20:12:42.332Z,17.10
2022-09-23T20:15:07.027Z,17.10
2022-09-23T20:17:31.338Z,17.00
2022-09-23T20:19:54.884Z,16.90
2022-09-23T20:22:28.506Z,16.90
2022-09-23T20:24:56.561Z,16.90
2022-09-23T20:27:19.165Z,16.90
2022-09-23T20:29:43.236Z,17.00
2022-09-23T20:32:07.171Z,17.00
2022-09-23T20:34:33.645Z,16.90
2022-09-23T20:36:57.433Z,16.90
2022-09-23T20:39:22.920Z,16.80
2022-09-23T20:41:48.240Z,16.90
2022-09-23T20:44:13.891Z,16.80
2022-09-23T20:46:37.551Z,16.80
2022-09-23T20:49:02.066Z,16.80
2022-09-23T20:51:26.335Z,16.80
2022-09-23T20:53:51.839Z,16.80
2022-09-23T20:56:18.880Z,16.70
2022-09-23T20:58:43.147Z,16.70
2022-09-23T21:01:10.629Z,16.70
2022-09-23T21:03:34.869Z,16.70
2022-09-23T21:06:01.031Z,16.80
2022-09-23T21:08:25.104Z,16.60
2022-09-23T21:10:55.907Z,16.60
2022-09-23T21:13:20.861Z,16.70
2022-09-23T21:15:44.446Z,16.60
2022-09-23T21:18:12.299Z,16.60
2022-09-23T21:20:38.087Z,16.60
2022-09-23T21:23:01.693Z,16.50
2022-09-23T21:25:28.092Z,16.60
2022-09-23T21:27:54.255Z,16.70
2022-09-23T21:30:19.311Z,16.60
2022-09-23T21:32:42.944Z,16.80
2022-09-23T21:35:07.321Z,16.70
2022-09-23T21:37:30.876Z,16.70
2022-09-23T21:40:08.342Z,16.60
2022-09-23T21:42:31.880Z,16.80
2022-09-23T21:44:55.363Z,16.70
2022-09-23T21:47:20.681Z,16.60
2022-09-23T21:49:48.482Z,16.60
2022-09-23T21:52:14.317Z,16.60
2022-09-23T21:54:37.726Z,16.60
2022-09-23T21:57:01.718Z,16.60
2022-09-23T21:59:25.275Z,16.60
2022-09-23T22:01:54.004Z,16.50
2022-09-23T22:04:20.745Z,16.50
2022-09-23T22:06:44.736Z,16.50
2022-09-23T22:09:11.812Z,16.30
2022-09-23T22:11:53.287Z,16.60
2022-09-23T22:14:18.879Z,16.60
2022-09-23T22:16:43.098Z,16.60
2022-09-23T22:19:07.571Z,16.80
2022-09-23T22:21:33.076Z,16.70
2022-09-23T22:23:58.053Z,16.80
2022-09-23T22:26:22.051Z,16.60
2022-09-23T22:29:03.008Z,16.70
2022-09-23T22:31:44.229Z,16.80
2022-09-23T22:34:20.408Z,16.90
2022-09-23T22:36:53.261Z,16.90
2022-09-23T22:39:16.942Z,16.80
2022-09-23T22:41:41.197Z,16.70
2022-09-23T22:44:05.274Z,16.70
2022-09-23T22:46:28.942Z,16.70
2022-09-23T22:48:53.488Z,16.60
2022-09-23T22:51:17.321Z,16.50
2022-09-23T22:53:42.153Z,16.70
2022-09-23T22:56:05.684Z,16.70
2022-09-23T22:58:32.730Z,16.70
2022-09-23T23:00:57.981Z,16.60
2022-09-23T23:03:22.049Z,16.60
2022-09-23T23:05:45.815Z,16.60
2022-09-23T23:08:09.726Z,16.70
2022-09-23T23:10:37.418Z,16.80
2022-09-23T23:13:01.713Z,16.80
2022-09-23T23:15:25.113Z,16.80
2022-09-23T23:17:48.744Z,16.80
2022-09-23T23:20:12.384Z,16.80
2022-09-23T23:22:35.991Z,16.70
2022-09-23T23:24:59.441Z,16.60
2022-09-23T23:27:24.459Z,16.80
2022-09-23T23:29:48.043Z,16.60
2022-09-23T23:32:11.866Z,16.70
2022-09-23T23:34:35.368Z,16.70
2022-09-23T23:36:58.939Z,16.70
2022-09-23T23:39:26.773Z,16.70
2022-09-23T23:41:53.217Z,16.80
2022-09-23T23:44:18.174Z,16.80
2022-09-23T23:46:41.860Z,16.60
2022-09-23T23:49:06.833Z,16.70
2022-09-23T23:51:30.358Z,16.60
2022-09-23T23:53:54.626Z,16.60
2022-09-23T23:56:19.937Z,16.70
2022-09-23T23:58:44.028Z,16.60
